Portada
METAR-TAF:

METAR-TAF

Aeroports :

Loei, Tailàndia

latitud: 17-27N, longitud: 101-44E, altitud: 253 m

Observació

L'informe es va fer fa 1 hora i 12 minuts, a les 10:00 UTC
Vent 4 kt del Nord/Nord-Oest
Temperatura 32°C
Humitat 36%
Pressió 1009 hPa
Visibilitat 10 km o més
sense núvols per sota de 1500 mi sense presència de cumulonimbus.

METAR: VTUL 121000Z 33004KT CAVOK 32/15 Q1009 NOSIG

Hora: 18:12 (11:12 UTC)

Pronòstic

L'informe es va fer fa 6 hores i 12 minuts, a les 05:00 UTC
Pronòstic vàlid del 12 a les 06 UTC al 13 a les 06 UTC
Vent 5 kt del Nord-Est
Visibilitat: 8000 m
Escasses núvols a una alçada de 2500 ft
Evolucionant progressivament
l' 12 a les 21 UTC al 12 a les 23 UTC
Visibilitat: 5000 m
boirina
Evolucionant progressivament
l' 13 a les 02 UTC al 13 a les 04 UTC
Visibilitat: 8000 m

TAF: VTUL 120500Z 1206/1306 04005KT 8000 FEW025 BECMG 1221/1223 5000 BR BECMG 1302/1304 8000 NSW

Observacions i pronòstics meteorològics de més de 4000 aeroports (METAR i TAF).

Les estacions disponibles són els punts grocs i vermells al mapa.

Posi el ratolí al punt desitjat per veure el nom de l'estació.

Feu clic per veure les observacions i els pronòstics meteorològics.

Per canviar el mapa: feu clic els botons verds amb una creu de color negre per apropar; al botó verd amb un guió per allunyar la imatge; o en les fletxes verdes per a mapes adjacents.


METAR-TAF: